sensor_id;sensor_type;location;lat;lon;timestamp;pressure;altitude;pressure_sealevel;temperature;humidity
10176;BME280;18221;38.704;0.152;2023-02-17T00:02:38;100333.38;;;13.08;56.25
10176;BME280;18221;38.704;0.152;2023-02-17T00:05:07;100333.38;;;13.08;56.38
10176;BME280;18221;38.704;0.152;2023-02-17T00:07:35;100330.19;;;13.25;56.08
10176;BME280;18221;38.704;0.152;2023-02-17T00:10:04;100323.50;;;13.31;56.04
10176;BME280;18221;38.704;0.152;2023-02-17T00:12:32;100329.94;;;13.28;55.94
10176;BME280;18221;38.704;0.152;2023-02-17T00:15:00;100325.13;;;13.11;56.19
10176;BME280;18221;38.704;0.152;2023-02-17T00:17:28;100315.41;;;13.10;56.25
10176;BME280;18221;38.704;0.152;2023-02-17T00:19:59;100313.25;;;12.93;56.92
10176;BME280;18221;38.704;0.152;2023-02-17T00:22:27;100319.91;;;12.87;56.98
10176;BME280;18221;38.704;0.152;2023-02-17T00:24:55;100317.50;;;12.95;56.82
10176;BME280;18221;38.704;0.152;2023-02-17T00:27:23;100315.41;;;12.99;56.51
10176;BME280;18221;38.704;0.152;2023-02-17T00:29:51;100314.22;;;12.92;56.66
10176;BME280;18221;38.704;0.152;2023-02-17T00:32:19;100315.91;;;12.93;56.83
10176;BME280;18221;38.704;0.152;2023-02-17T00:34:48;100317.50;;;12.95;56.69
10176;BME280;18221;38.704;0.152;2023-02-17T00:37:17;100311.53;;;13.14;56.64
10176;BME280;18221;38.704;0.152;2023-02-17T00:39:46;100311.78;;;13.11;56.09
10176;BME280;18221;38.704;0.152;2023-02-17T00:42:14;100304.72;;;12.99;56.32
10176;BME280;18221;38.704;0.152;2023-02-17T00:44:42;100311.78;;;13.00;56.30
10176;BME280;18221;38.704;0.152;2023-02-17T00:47:10;100310.78;;;13.01;56.49
10176;BME280;18221;38.704;0.152;2023-02-17T00:49:38;100308.41;;;12.98;56.53
10176;BME280;18221;38.704;0.152;2023-02-17T00:52:07;100312.88;;;12.97;56.46
10176;BME280;18221;38.704;0.152;2023-02-17T00:54:37;100304.63;;;13.00;56.27
10176;BME280;18221;38.704;0.152;2023-02-17T00:57:06;100310.31;;;12.96;56.33
10176;BME280;18221;38.704;0.152;2023-02-17T00:59:34;100313.13;;;12.83;56.79
10176;BME280;18221;38.704;0.152;2023-02-17T01:02:02;100319.66;;;12.68;57.22
10176;BME280;18221;38.704;0.152;2023-02-17T01:04:31;100303.16;;;12.85;56.88
10176;BME280;18221;38.704;0.152;2023-02-17T01:06:59;100310.59;;;12.82;56.91
10176;BME280;18221;38.704;0.152;2023-02-17T01:09:27;100299.69;;;12.85;56.78
10176;BME280;18221;38.704;0.152;2023-02-17T01:11:57;100290.22;;;12.92;56.37
10176;BME280;18221;38.704;0.152;2023-02-17T01:14:25;100294.59;;;12.82;56.58
10176;BME280;18221;38.704;0.152;2023-02-17T01:16:53;100283.94;;;12.71;56.96
10176;BME280;18221;38.704;0.152;2023-02-17T01:19:21;100286.00;;;12.45;57.58
10176;BME280;18221;38.704;0.152;2023-02-17T01:21:49;100282.25;;;12.48;57.74
10176;BME280;18221;38.704;0.152;2023-02-17T01:24:18;100274.38;;;12.57;57.60
10176;BME280;18221;38.704;0.152;2023-02-17T01:26:46;100269.41;;;12.64;57.44
10176;BME280;18221;38.704;0.152;2023-02-17T01:29:15;100276.06;;;12.58;57.43
10176;BME280;18221;38.704;0.152;2023-02-17T01:31:44;100273.53;;;12.46;57.84
10176;BME280;18221;38.704;0.152;2023-02-17T01:34:12;100268.94;;;12.48;57.53
10176;BME280;18221;38.704;0.152;2023-02-17T01:36:40;100273.16;;;12.39;57.93
10176;BME280;18221;38.704;0.152;2023-02-17T01:39:12;100272.78;;;12.55;57.53
10176;BME280;18221;38.704;0.152;2023-02-17T01:41:41;100276.69;;;12.51;57.35
10176;BME280;18221;38.704;0.152;2023-02-17T01:44:16;100279.81;;;12.67;57.43
10176;BME280;18221;38.704;0.152;2023-02-17T01:46:48;100280.03;;;12.75;57.13
10176;BME280;18221;38.704;0.152;2023-02-17T01:49:31;100278.50;;;12.61;56.59
10176;BME280;18221;38.704;0.152;2023-02-17T01:52:09;100278.13;;;12.55;57.33
10176;BME280;18221;38.704;0.152;2023-02-17T01:54:44;100274.72;;;12.42;57.35
10176;BME280;18221;38.704;0.152;2023-02-17T01:57:17;100266.97;;;12.38;57.82
10176;BME280;18221;38.704;0.152;2023-02-17T01:59:49;100273.88;;;12.41;57.46
10176;BME280;18221;38.704;0.152;2023-02-17T02:02:17;100272.44;;;12.48;57.84
10176;BME280;18221;38.704;0.152;2023-02-17T02:04:51;100278.25;;;12.53;57.36
10176;BME280;18221;38.704;0.152;2023-02-17T02:07:25;100268.31;;;12.55;57.39
10176;BME280;18221;38.704;0.152;2023-02-17T02:09:57;100274.38;;;12.57;57.21
10176;BME280;18221;38.704;0.152;2023-02-17T02:12:29;100272.19;;;12.40;57.70
10176;BME280;18221;38.704;0.152;2023-02-17T02:15:03;100270.63;;;12.49;57.50
10176;BME280;18221;38.704;0.152;2023-02-17T02:17:43;100264.94;;;12.42;57.76
10176;BME280;18221;38.704;0.152;2023-02-17T02:23:55;100260.78;;;12.49;57.40
10176;BME280;18221;38.704;0.152;2023-02-17T02:26:52;100257.06;;;12.29;58.13
10176;BME280;18221;38.704;0.152;2023-02-17T02:29:59;100254.03;;;12.45;57.79
10176;BME280;18221;38.704;0.152;2023-02-17T02:32:53;100260.94;;;12.36;57.63
10176;BME280;18221;38.704;0.152;2023-02-17T02:35:33;100262.88;;;12.34;58.09
10176;BME280;18221;38.704;0.152;2023-02-17T02:38:11;100252.94;;;12.36;57.91
10176;BME280;18221;38.704;0.152;2023-02-17T02:40:46;100251.72;;;12.18;58.15
10176;BME280;18221;38.704;0.152;2023-02-17T02:43:17;100254.50;;;12.28;58.34
10176;BME280;18221;38.704;0.152;2023-02-17T02:45:45;100260.94;;;12.48;57.61
10176;BME280;18221;38.704;0.152;2023-02-17T02:48:15;100258.50;;;12.45;57.57
10176;BME280;18221;38.704;0.152;2023-02-17T02:51:07;100251.22;;;12.47;57.48
10176;BME280;18221;38.704;0.152;2023-02-17T02:54:14;100250.63;;;12.32;57.30
10176;BME280;18221;38.704;0.152;2023-02-17T02:57:13;100247.22;;;12.41;57.54
10176;BME280;18221;38.704;0.152;2023-02-17T03:00:03;100252.94;;;12.36;57.52
10176;BME280;18221;38.704;0.152;2023-02-17T03:02:43;100253.44;;;12.30;57.85
10176;BME280;18221;38.704;0.152;2023-02-17T03:05:22;100252.94;;;12.48;57.63
10176;BME280;18221;38.704;0.152;2023-02-17T03:07:58;100250.66;;;12.43;57.36
10176;BME280;18221;38.704;0.152;2023-02-17T03:10:29;100255.59;;;12.36;57.67
10176;BME280;18221;38.704;0.152;2023-02-17T03:13:00;100261.16;;;12.33;57.62
10176;BME280;18221;38.704;0.152;2023-02-17T03:15:32;100260.94;;;12.36;57.61
10176;BME280;18221;38.704;0.152;2023-02-17T03:18:02;100261.44;;;12.30;57.69
10176;BME280;18221;38.704;0.152;2023-02-17T03:20:36;100261.16;;;12.33;57.50
10176;BME280;18221;38.704;0.152;2023-02-17T03:23:06;100266.13;;;12.27;57.48
10176;BME280;18221;38.704;0.152;2023-02-17T03:25:35;100267.22;;;12.24;57.96
10176;BME280;18221;38.704;0.152;2023-02-17T03:28:03;100264.56;;;12.35;57.63
10176;BME280;18221;38.704;0.152;2023-02-17T03:30:31;100274.00;;;12.51;57.37
10176;BME280;18221;38.704;0.152;2023-02-17T03:32:59;100273.13;;;12.28;57.47
10176;BME280;18221;38.704;0.152;2023-02-17T03:35:28;100270.59;;;12.15;57.68
10176;BME280;18221;38.704;0.152;2023-02-17T03:37:58;100270.63;;;12.37;57.55
10176;BME280;18221;38.704;0.152;2023-02-17T03:40:26;100266.25;;;12.36;57.29
10176;BME280;18221;38.704;0.152;2023-02-17T03:42:56;100279.09;;;12.31;57.06
10176;BME280;18221;38.704;0.152;2023-02-17T03:45:24;100279.19;;;12.19;57.57
10176;BME280;18221;38.704;0.152;2023-02-17T03:47:53;100279.34;;;12.17;57.58
10176;BME280;18221;38.704;0.152;2023-02-17T03:50:20;100292.78;;;12.27;57.63
10176;BME280;18221;38.704;0.152;2023-02-17T03:52:48;100282.81;;;12.18;57.49
10176;BME280;18221;38.704;0.152;2023-02-17T03:55:18;100287.66;;;12.13;57.68
10176;BME280;18221;38.704;0.152;2023-02-17T03:57:46;100294.13;;;12.32;57.39
10176;BME280;18221;38.704;0.152;2023-02-17T04:00:15;100300.50;;;12.19;57.11
10176;BME280;18221;38.704;0.152;2023-02-17T04:02:44;100300.63;;;12.17;57.38
10176;BME280;18221;38.704;0.152;2023-02-17T04:05:12;100296.50;;;12.13;57.34
10176;BME280;18221;38.704;0.152;2023-02-17T04:07:40;100302.44;;;12.17;57.53
10176;BME280;18221;38.704;0.152;2023-02-17T04:10:09;100305.47;;;12.23;57.49
10176;BME280;18221;38.704;0.152;2023-02-17T04:12:39;100301.59;;;12.16;57.28
10176;BME280;18221;38.704;0.152;2023-02-17T04:15:08;100310.09;;;12.32;57.04
10176;BME280;18221;38.704;0.152;2023-02-17T04:17:36;100311.66;;;12.24;57.47
10176;BME280;18221;38.704;0.152;2023-02-17T04:20:06;100306.81;;;12.29;57.25
10176;BME280;18221;38.704;0.152;2023-02-17T04:22:35;100305.47;;;12.34;57.14
10176;BME280;18221;38.704;0.152;2023-02-17T04:25:03;100306.56;;;12.21;57.25
10176;BME280;18221;38.704;0.152;2023-02-17T04:27:31;100305.94;;;12.28;56.93
10176;BME280;18221;38.704;0.152;2023-02-17T04:30:01;100305.94;;;12.28;57.57
10176;BME280;18221;38.704;0.152;2023-02-17T04:32:29;100312.09;;;12.18;57.27
10176;BME280;18221;38.704;0.152;2023-02-17T04:34:57;100303.53;;;12.25;57.49
10176;BME280;18221;38.704;0.152;2023-02-17T04:37:25;100308.34;;;12.20;57.53
10176;BME280;18221;38.704;0.152;2023-02-17T04:39:54;100303.53;;;12.25;57.48
10176;BME280;18221;38.704;0.152;2023-02-17T04:42:22;100304.38;;;12.26;57.50
10176;BME280;18221;38.704;0.152;2023-02-17T04:44:50;100302.69;;;12.25;57.59
10176;BME280;18221;38.704;0.152;2023-02-17T04:47:20;100305.19;;;12.15;58.10
10176;BME280;18221;38.704;0.152;2023-02-17T04:49:48;100326.84;;;12.00;58.58
10176;BME280;18221;38.704;0.152;2023-02-17T04:52:16;100319.84;;;12.10;58.43
10176;BME280;18221;38.704;0.152;2023-02-17T04:54:44;100324.22;;;12.11;58.19
10176;BME280;18221;38.704;0.152;2023-02-17T04:57:12;100322.13;;;12.03;58.67
10176;BME280;18221;38.704;0.152;2023-02-17T04:59:40;100324.22;;;12.11;58.43
10176;BME280;18221;38.704;0.152;2023-02-17T05:02:09;100322.44;;;12.22;58.15
10176;BME280;18221;38.704;0.152;2023-02-17T05:04:38;100317.69;;;12.26;58.29
10176;BME280;18221;38.704;0.152;2023-02-17T05:07:06;100322.56;;;12.32;58.27
10176;BME280;18221;38.704;0.152;2023-02-17T05:09:34;100323.41;;;12.32;58.16
10176;BME280;18221;38.704;0.152;2023-02-17T05:12:03;100313.69;;;12.20;57.90
10176;BME280;18221;38.704;0.152;2023-02-17T05:14:33;100316.88;;;12.36;57.56
10176;BME280;18221;38.704;0.152;2023-02-17T05:17:01;100313.44;;;12.23;57.96
10176;BME280;18221;38.704;0.152;2023-02-17T05:19:29;100317.94;;;12.23;58.06
10176;BME280;18221;38.704;0.152;2023-02-17T05:21:59;100314.78;;;12.18;57.74
10176;BME280;18221;38.704;0.152;2023-02-17T05:24:27;100313.19;;;12.04;58.21
10176;BME280;18221;38.704;0.152;2023-02-17T05:26:55;100306.06;;;12.16;57.97
10176;BME280;18221;38.704;0.152;2023-02-17T05:29:23;100310.53;;;12.15;57.75
10176;BME280;18221;38.704;0.152;2023-02-17T05:31:52;100319.22;;;11.95;58.33
10176;BME280;18221;38.704;0.152;2023-02-17T05:34:20;100315.69;;;11.95;58.25
10176;BME280;18221;38.704;0.152;2023-02-17T05:36:48;100312.34;;;12.04;58.44
10176;BME280;18221;38.704;0.152;2023-02-17T05:39:17;100307.59;;;11.96;58.43
10176;BME280;18221;38.704;0.152;2023-02-17T05:41:45;100315.13;;;12.13;57.67
10176;BME280;18221;38.704;0.152;2023-02-17T05:44:13;100313.66;;;11.98;57.93
10176;BME280;18221;38.704;0.152;2023-02-17T05:46:41;100318.53;;;12.15;57.54
10176;BME280;18221;38.704;0.152;2023-02-17T05:49:10;100312.69;;;12.10;57.39
10176;BME280;18221;38.704;0.152;2023-02-17T05:51:38;100325.25;;;11.86;57.85
10176;BME280;18221;38.704;0.152;2023-02-17T05:54:06;100328.41;;;12.02;57.41
10176;BME280;18221;38.704;0.152;2023-02-17T05:56:36;100319.94;;;11.97;57.23
10176;BME280;18221;38.704;0.152;2023-02-17T05:59:04;100339.31;;;12.10;56.97
10176;BME280;18221;38.704;0.152;2023-02-17T06:01:33;100342.47;;;12.04;57.27
10176;BME280;18221;38.704;0.152;2023-02-17T06:04:01;100342.16;;;11.85;57.50
10176;BME280;18221;38.704;0.152;2023-02-17T06:06:29;100341.72;;;12.02;57.43
10176;BME280;18221;38.704;0.152;2023-02-17T06:08:57;100347.94;;;12.14;57.00
10176;BME280;18221;38.704;0.152;2023-02-17T06:11:25;100339.09;;;12.13;57.16
10176;BME280;18221;38.704;0.152;2023-02-17T06:13:55;100346.56;;;11.97;57.28
10176;BME280;18221;38.704;0.152;2023-02-17T06:16:23;100354.66;;;11.96;57.35
10176;BME280;18221;38.704;0.152;2023-02-17T06:18:51;100356.97;;;12.00;57.25
10176;BME280;18221;38.704;0.152;2023-02-17T06:21:19;100361.06;;;11.93;57.31
10176;BME280;18221;38.704;0.152;2023-02-17T06:23:47;100359.78;;;11.75;57.63
10176;BME280;18221;38.704;0.152;2023-02-17T06:26:15;100358.41;;;11.93;57.30
10176;BME280;18221;38.704;0.152;2023-02-17T06:28:43;100371.28;;;11.75;58.15
10176;BME280;18221;38.704;0.152;2023-02-17T06:31:13;100369.44;;;12.00;57.42
10176;BME280;18221;38.704;0.152;2023-02-17T06:33:41;100375.16;;;12.06;57.36
10176;BME280;18221;38.704;0.152;2023-02-17T06:36:09;100376.03;;;11.83;57.61
10176;BME280;18221;38.704;0.152;2023-02-17T06:38:37;100379.78;;;11.81;57.38
10176;BME280;18221;38.704;0.152;2023-02-17T06:41:05;100390.44;;;11.81;57.67
10176;BME280;18221;38.704;0.152;2023-02-17T06:43:33;100380.47;;;11.59;58.31
10176;BME280;18221;38.704;0.152;2023-02-17T06:46:02;100383.75;;;11.75;57.91
10176;BME280;18221;38.704;0.152;2023-02-17T06:48:31;100386.25;;;11.53;58.54
10176;BME280;18221;38.704;0.152;2023-02-17T06:51:00;100390.16;;;11.60;58.42
10176;BME280;18221;38.704;0.152;2023-02-17T06:53:28;100403.47;;;11.60;58.43
10176;BME280;18221;38.704;0.152;2023-02-17T06:55:57;100405.88;;;11.63;58.12
10176;BME280;18221;38.704;0.152;2023-02-17T06:58:25;100407.94;;;11.59;58.36
10176;BME280;18221;38.704;0.152;2023-02-17T07:00:53;100401.31;;;11.65;58.29
10176;BME280;18221;38.704;0.152;2023-02-17T07:03:22;100408.00;;;11.47;58.85
10176;BME280;18221;38.704;0.152;2023-02-17T07:05:56;100401.06;;;11.81;58.36
10176;BME280;18221;38.704;0.152;2023-02-17T07:08:25;100399.59;;;11.76;58.25
10176;BME280;18221;38.704;0.152;2023-02-17T07:10:53;100400.56;;;11.75;58.09
10176;BME280;18221;38.704;0.152;2023-02-17T07:13:22;100407.09;;;11.59;58.66
10176;BME280;18221;38.704;0.152;2023-02-17T07:15:50;100414.47;;;11.79;58.52
10176;BME280;18221;38.704;0.152;2023-02-17T07:18:18;100403.16;;;11.88;58.18
10176;BME280;18221;38.704;0.152;2023-02-17T07:20:47;100410.41;;;11.86;57.78
10176;BME280;18221;38.704;0.152;2023-02-17T07:23:16;100408.41;;;11.77;57.94
10176;BME280;18221;38.704;0.152;2023-02-17T07:25:44;100419.91;;;12.01;57.49
10176;BME280;18221;38.704;0.152;2023-02-17T07:28:13;100411.69;;;12.04;57.34
10176;BME280;18221;38.704;0.152;2023-02-17T07:30:42;100408.34;;;12.13;57.16
10176;BME280;18221;38.704;0.152;2023-02-17T07:33:11;100412.66;;;12.03;56.84
10176;BME280;18221;38.704;0.152;2023-02-17T07:35:41;100415.19;;;12.05;57.49
10176;BME280;18221;38.704;0.152;2023-02-17T07:38:11;100404.09;;;12.11;57.31
10176;BME280;18221;38.704;0.152;2023-02-17T07:40:41;100415.91;;;12.30;56.86
10176;BME280;18221;38.704;0.152;2023-02-17T07:43:10;100415.59;;;12.11;56.78
10176;BME280;18221;38.704;0.152;2023-02-17T07:45:38;100421.38;;;12.05;57.40
10176;BME280;18221;38.704;0.152;2023-02-17T07:48:06;100438.56;;;12.12;57.23
10176;BME280;18221;38.704;0.152;2023-02-17T07:50:35;100435.19;;;12.10;57.45
10176;BME280;18221;38.704;0.152;2023-02-17T07:53:03;100442.28;;;12.22;57.14
10176;BME280;18221;38.704;0.152;2023-02-17T07:55:31;100438.13;;;12.18;57.39
10176;BME280;18221;38.704;0.152;2023-02-17T07:58:01;100446.38;;;12.26;57.66
10176;BME280;18221;38.704;0.152;2023-02-17T08:00:29;100445.31;;;12.29;57.59
10176;BME280;18221;38.704;0.152;2023-02-17T08:02:57;100440.13;;;12.38;57.36
10176;BME280;18221;38.704;0.152;2023-02-17T08:05:25;100448.38;;;12.47;57.20
10176;BME280;18221;38.704;0.152;2023-02-17T08:07:53;100447.47;;;12.59;57.17
10176;BME280;18221;38.704;0.152;2023-02-17T08:10:37;100452.72;;;12.36;57.42
10176;BME280;18221;38.704;0.152;2023-02-17T08:13:25;100447.06;;;12.52;56.92
10176;BME280;18221;38.704;0.152;2023-02-17T08:15:53;100442.13;;;12.59;56.73
10176;BME280;18221;38.704;0.152;2023-02-17T08:18:22;100444.31;;;12.54;56.83
10176;BME280;18221;38.704;0.152;2023-02-17T08:20:51;100439.72;;;12.67;56.67
10176;BME280;18221;38.704;0.152;2023-02-17T08:23:20;100451.75;;;12.83;56.28
10176;BME280;18221;38.704;0.152;2023-02-17T08:25:49;100452.22;;;12.88;56.10
10176;BME280;18221;38.704;0.152;2023-02-17T08:28:17;100450.56;;;12.87;56.18
10176;BME280;18221;38.704;0.152;2023-02-17T08:30:48;100452.34;;;12.76;56.42
10176;BME280;18221;38.704;0.152;2023-02-17T08:33:16;100450.38;;;12.56;57.05
10176;BME280;18221;38.704;0.152;2023-02-17T08:35:45;100451.81;;;12.60;56.93
10176;BME280;18221;38.704;0.152;2023-02-17T08:38:13;100454.88;;;12.88;56.57
10176;BME280;18221;38.704;0.152;2023-02-17T08:40:41;100447.38;;;12.71;56.86
10176;BME280;18221;38.704;0.152;2023-02-17T08:43:10;100445.22;;;12.87;56.43
10176;BME280;18221;38.704;0.152;2023-02-17T08:45:38;100444.63;;;12.95;56.59
10176;BME280;18221;38.704;0.152;2023-02-17T08:48:08;100459.38;;;12.99;56.46
10176;BME280;18221;38.704;0.152;2023-02-17T08:50:36;100448.34;;;12.81;57.12
10176;BME280;18221;38.704;0.152;2023-02-17T08:53:04;100446.06;;;12.99;56.69
10176;BME280;18221;38.704;0.152;2023-02-17T08:55:34;100453.97;;;13.00;56.76
10176;BME280;18221;38.704;0.152;2023-02-17T08:58:02;100458.81;;;12.95;56.57
10176;BME280;18221;38.704;0.152;2023-02-17T09:00:31;100466.06;;;13.05;56.70
10176;BME280;18221;38.704;0.152;2023-02-17T09:02:59;100477.38;;;13.30;56.08
10176;BME280;18221;38.704;0.152;2023-02-17T09:05:29;100488.19;;;13.29;55.85
10176;BME280;18221;38.704;0.152;2023-02-17T09:07:58;100506.25;;;13.47;55.78
10176;BME280;18221;38.704;0.152;2023-02-17T09:10:26;100505.16;;;13.50;55.48
10176;BME280;18221;38.704;0.152;2023-02-17T09:12:55;100508.91;;;13.70;55.17
10176;BME280;18221;38.704;0.152;2023-02-17T09:15:24;100502.22;;;13.75;54.96
10176;BME280;18221;38.704;0.152;2023-02-17T09:17:53;100506.19;;;13.92;55.26
10176;BME280;18221;38.704;0.152;2023-02-17T09:20:21;100515.63;;;14.07;54.48
10176;BME280;18221;38.704;0.152;2023-02-17T09:22:52;100516.81;;;14.14;54.29
10176;BME280;18221;38.704;0.152;2023-02-17T09:25:20;100521.13;;;14.26;54.27
10176;BME280;18221;38.704;0.152;2023-02-17T09:27:48;100513.25;;;14.24;54.15
10176;BME280;18221;38.704;0.152;2023-02-17T09:30:16;100513.50;;;14.21;54.10
10176;BME280;18221;38.704;0.152;2023-02-17T09:32:45;100525.06;;;14.11;53.98
10176;BME280;18221;38.704;0.152;2023-02-17T09:35:15;100521.94;;;13.95;54.46
10176;BME280;18221;38.704;0.152;2023-02-17T09:37:44;100528.84;;;14.08;54.20
10176;BME280;18221;38.704;0.152;2023-02-17T09:40:19;100536.22;;;14.27;54.08
10176;BME280;18221;38.704;0.152;2023-02-17T09:42:48;100538.63;;;14.30;54.21
10176;BME280;18221;38.704;0.152;2023-02-17T09:45:22;100537.06;;;14.39;53.98
10176;BME280;18221;38.704;0.152;2023-02-17T09:47:55;100542.75;;;14.34;53.96
10176;BME280;18221;38.704;0.152;2023-02-17T09:50:28;100540.75;;;14.15;54.70
10176;BME280;18221;38.704;0.152;2023-02-17T09:53:06;100545.44;;;14.34;54.31
10176;BME280;18221;38.704;0.152;2023-02-17T09:55:42;100550.66;;;14.24;54.44
10176;BME280;18221;38.704;0.152;2023-02-17T09:58:17;100558.19;;;14.31;54.31
10176;BME280;18221;38.704;0.152;2023-02-17T10:00:51;100549.88;;;14.02;54.74
10176;BME280;18221;38.704;0.152;2023-02-17T10:03:28;100542.44;;;14.16;54.43
10176;BME280;18221;38.704;0.152;2023-02-17T10:06:11;100540.06;;;14.02;54.77
10176;BME280;18221;38.704;0.152;2023-02-17T10:08:47;100543.06;;;14.09;54.72
10176;BME280;18221;38.704;0.152;2023-02-17T10:11:28;100552.78;;;14.10;54.59
10176;BME280;18221;38.704;0.152;2023-02-17T10:14:02;100565.25;;;14.32;54.53
10176;BME280;18221;38.704;0.152;2023-02-17T10:16:37;100567.78;;;14.44;54.04
10176;BME280;18221;38.704;0.152;2023-02-17T10:19:13;100559.94;;;14.52;53.46
10176;BME280;18221;38.704;0.152;2023-02-17T10:21:50;100560.13;;;14.71;53.10
10176;BME280;18221;38.704;0.152;2023-02-17T10:24:23;100548.94;;;14.77;52.79
10176;BME280;18221;38.704;0.152;2023-02-17T10:27:12;100559.09;;;14.83;52.79
10176;BME280;18221;38.704;0.152;2023-02-17T10:30:00;100551.50;;;14.68;52.84
10176;BME280;18221;38.704;0.152;2023-02-17T10:32:45;100557.91;;;14.76;52.48
10176;BME280;18221;38.704;0.152;2023-02-17T10:35:22;100550.03;;;14.75;52.59
10176;BME280;18221;38.704;0.152;2023-02-17T10:38:01;100548.47;;;14.93;52.60
10176;BME280;18221;38.704;0.152;2023-02-17T10:40:31;100562.63;;;14.84;52.77
10176;BME280;18221;38.704;0.152;2023-02-17T10:43:05;100552.31;;;15.00;52.47
10176;BME280;18221;38.704;0.152;2023-02-17T10:45:39;100537.63;;;15.15;51.88
10176;BME280;18221;38.704;0.152;2023-02-17T10:48:13;100542.66;;;15.29;52.15
10176;BME280;18221;38.704;0.152;2023-02-17T10:50:44;100555.38;;;15.37;51.90
10176;BME280;18221;38.704;0.152;2023-02-17T10:53:16;100560.13;;;15.54;51.04
10176;BME280;18221;38.704;0.152;2023-02-17T10:55:56;100557.78;;;15.40;51.61
10176;BME280;18221;38.704;0.152;2023-02-17T10:58:49;100546.91;;;15.62;50.73
10176;BME280;18221;38.704;0.152;2023-02-17T11:01:20;100553.94;;;15.54;50.92
10176;BME280;18221;38.704;0.152;2023-02-17T11:04:01;100544.50;;;15.38;51.07
10176;BME280;18221;38.704;0.152;2023-02-17T11:06:30;100545.47;;;15.49;50.98
10176;BME280;18221;38.704;0.152;2023-02-17T11:09:03;100544.13;;;15.43;50.55
10176;BME280;18221;38.704;0.152;2023-02-17T11:11:35;100547.16;;;15.59;50.22
10176;BME280;18221;38.704;0.152;2023-02-17T11:14:18;100549.47;;;15.64;50.24
10176;BME280;18221;38.704;0.152;2023-02-17T11:16:53;100560.78;;;15.47;50.54
10176;BME280;18221;38.704;0.152;2023-02-17T11:19:26;100558.88;;;15.58;49.83
10176;BME280;18221;38.704;0.152;2023-02-17T11:21:57;100548.38;;;15.76;49.77
10176;BME280;18221;38.704;0.152;2023-02-17T11:24:27;100541.91;;;15.78;50.21
10176;BME280;18221;38.704;0.152;2023-02-17T11:26:59;100537.13;;;15.52;50.52
10176;BME280;18221;38.704;0.152;2023-02-17T11:29:30;100536.88;;;15.34;50.92
10176;BME280;18221;38.704;0.152;2023-02-17T11:32:02;100532.22;;;15.57;50.95
10176;BME280;18221;38.704;0.152;2023-02-17T11:34:35;100528.34;;;15.70;50.32
10176;BME280;18221;38.704;0.152;2023-02-17T11:37:19;100527.53;;;15.79;50.34
10176;BME280;18221;38.704;0.152;2023-02-17T11:39:51;100518.03;;;15.66;50.59
10176;BME280;18221;38.704;0.152;2023-02-17T11:42:22;100519.34;;;15.71;50.42
10176;BME280;18221;38.704;0.152;2023-02-17T11:44:56;100514.94;;;15.61;50.83
10176;BME280;18221;38.704;0.152;2023-02-17T11:47:33;100518.84;;;15.36;50.98
10176;BME280;18221;38.704;0.152;2023-02-17T11:50:22;100526.38;;;15.72;50.47
10176;BME280;18221;38.704;0.152;2023-02-17T11:56:09;100513.41;;;15.77;50.75
10176;BME280;18221;38.704;0.152;2023-02-17T12:02:10;100498.78;;;15.81;50.62
10176;BME280;18221;38.704;0.152;2023-02-17T12:04:53;100497.75;;;15.73;50.59
10176;BME280;18221;38.704;0.152;2023-02-17T12:07:45;100502.81;;;15.66;50.48
10176;BME280;18221;38.704;0.152;2023-02-17T12:10:41;100504.41;;;15.78;50.28
10176;BME280;18221;38.704;0.152;2023-02-17T12:13:29;100493.69;;;15.69;50.47
10176;BME280;18221;38.704;0.152;2023-02-17T12:16:20;100481.50;;;15.55;50.73
10176;BME280;18221;38.704;0.152;2023-02-17T12:19:07;100489.72;;;15.63;50.89
10176;BME280;18221;38.704;0.152;2023-02-17T12:21:55;100484.97;;;15.86;50.52
10176;BME280;18221;38.704;0.152;2023-02-17T12:27:46;100483.84;;;15.79;50.09
10176;BME280;18221;38.704;0.152;2023-02-17T12:30:35;100494.97;;;15.74;50.12
10176;BME280;18221;38.704;0.152;2023-02-17T12:33:33;100489.94;;;16.10;49.51
10176;BME280;18221;38.704;0.152;2023-02-17T12:36:10;100475.03;;;16.26;49.12
10176;BME280;18221;38.704;0.152;2023-02-17T12:38:44;100478.25;;;16.11;49.55
10176;BME280;18221;38.704;0.152;2023-02-17T12:41:20;100473.31;;;16.16;49.39
10176;BME280;18221;38.704;0.152;2023-02-17T12:43:52;100481.34;;;16.25;49.40
10176;BME280;18221;38.704;0.152;2023-02-17T12:46:26;100490.22;;;16.06;49.33
10176;BME280;18221;38.704;0.152;2023-02-17T12:49:02;100486.53;;;15.88;49.59
10176;BME280;18221;38.704;0.152;2023-02-17T12:51:38;100482.75;;;16.20;49.64
10176;BME280;18221;38.704;0.152;2023-02-17T12:54:17;100472.34;;;16.26;49.02
10176;BME280;18221;38.704;0.152;2023-02-17T12:56:56;100475.72;;;16.19;48.98
10176;BME280;18221;38.704;0.152;2023-02-17T12:59:32;100468.94;;;16.05;49.29
10176;BME280;18221;38.704;0.152;2023-02-17T13:02:05;100457.22;;;15.87;49.28
10176;BME280;18221;38.704;0.152;2023-02-17T13:04:35;100447.78;;;16.12;49.60
10176;BME280;18221;38.704;0.152;2023-02-17T13:07:23;100441.56;;;16.01;49.35
10176;BME280;18221;38.704;0.152;2023-02-17T13:09:55;100447.78;;;16.12;49.43
10176;BME280;18221;38.704;0.152;2023-02-17T13:12:54;100446.94;;;16.30;49.13
10176;BME280;18221;38.704;0.152;2023-02-17T13:15:35;100452.31;;;16.40;49.26
10176;BME280;18221;38.704;0.152;2023-02-17T13:18:09;100447.78;;;15.92;49.23
10176;BME280;18221;38.704;0.152;2023-02-17T13:21:00;100432.53;;;16.22;49.37
10176;BME280;18221;38.704;0.152;2023-02-17T13:23:36;100426.75;;;16.17;49.05
10176;BME280;18221;38.704;0.152;2023-02-17T13:26:28;100418.97;;;15.75;49.92
10176;BME280;18221;38.704;0.152;2023-02-17T13:29:33;100418.69;;;15.78;50.24
10176;BME280;18221;38.704;0.152;2023-02-17T13:32:05;100417.00;;;15.77;50.32